Aviation Digital Data Service (ADDS)

Output produced by METARs form (0917 UTC 24 October 2017)
found at http://aviationweather.gov/adds/metars/
 
KPBG 240538Z 2406/2506 17015G24KT P6SM BKN100 
     FM241100 16016G29KT P6SM BKN045 
     FM241400 17018G34KT P6SM VCSH BKN040 
     FM241700 17019G33KT P6SM -SHRA OVC035 
     FM242000 16016G24KT 3SM +RA BR OVC015 
     FM250000 17011G19KT P6SM -SHRA OVC020